createdAt,value
2022-12-14T00:03:00.043Z,77.34
2022-12-14T00:08:02.536Z,77.35
2022-12-14T00:13:08.737Z,77.52
2022-12-14T00:18:11.455Z,77.60
2022-12-14T00:23:13.211Z,77.51
2022-12-14T00:28:15.098Z,77.66
2022-12-14T00:33:16.946Z,77.83
2022-12-14T00:38:18.953Z,78.19
2022-12-14T00:43:24.151Z,78.60
2022-12-14T00:48:31.462Z,78.81
2022-12-14T00:53:33.678Z,78.36
2022-12-14T00:58:35.739Z,78.34
2022-12-14T01:03:37.613Z,78.14
2022-12-14T01:08:39.370Z,78.01
2022-12-14T01:13:42.248Z,78.01
2022-12-14T01:18:44.378Z,78.44
2022-12-14T01:23:47.768Z,78.77
2022-12-14T01:28:56.368Z,79.22
2022-12-14T01:33:58.925Z,79.63
2022-12-14T01:39:04.369Z,79.57
2022-12-14T01:44:08.895Z,79.74
2022-12-14T01:49:16.521Z,79.86
2022-12-14T01:54:19.396Z,79.90
2022-12-14T01:59:31.186Z,79.71
2022-12-14T02:04:37.679Z,79.53
2022-12-14T02:09:42.073Z,79.42
2022-12-14T02:14:45.271Z,79.13
2022-12-14T02:19:49.323Z,78.90
2022-12-14T02:25:16.228Z,78.89
2022-12-14T02:30:23.072Z,78.96
2022-12-14T02:35:37.222Z,78.99
2022-12-14T02:40:59.240Z,78.74
2022-12-14T02:46:39.617Z,78.23
2022-12-14T02:52:14.144Z,77.82
2022-12-14T02:57:43.827Z,77.78
2022-12-14T03:02:47.966Z,77.83
2022-12-14T03:07:53.104Z,77.91
2022-12-14T03:13:02.621Z,77.91
2022-12-14T03:18:07.293Z,77.88
2022-12-14T03:23:13.188Z,77.99
2022-12-14T03:28:24.191Z,78.07
2022-12-14T03:33:29.429Z,78.24
2022-12-14T03:38:41.048Z,78.59
2022-12-14T03:44:13.229Z,79.04
2022-12-14T03:49:34.307Z,79.53
2022-12-14T03:55:14.830Z,79.74
2022-12-14T04:00:21.445Z,79.99
2022-12-14T04:05:37.882Z,80.06
2022-12-14T04:11:10.352Z,80.08
2022-12-14T04:16:36.485Z,80.27
2022-12-14T04:21:54.756Z,80.42
2022-12-14T04:27:02.200Z,80.48
2022-12-14T04:32:30.005Z,80.46
2022-12-14T04:37:34.799Z,80.62
2022-12-14T04:42:44.313Z,80.62
2022-12-14T04:47:55.872Z,80.67
2022-12-14T04:53:21.192Z,80.64
2022-12-14T04:58:27.077Z,80.56
2022-12-14T05:03:36.029Z,80.68
2022-12-14T05:09:04.570Z,80.60
2022-12-14T05:14:17.795Z,80.39
2022-12-14T05:19:19.608Z,80.52
2022-12-14T05:24:21.531Z,80.43
2022-12-14T05:29:23.167Z,80.22
2022-12-14T05:34:25.045Z,80.16
2022-12-14T05:39:26.773Z,80.30
2022-12-14T05:44:28.500Z,80.35
2022-12-14T05:49:30.344Z,80.28
2022-12-14T05:54:32.187Z,80.09
2022-12-14T05:59:34.083Z,80.04
2022-12-14T06:04:35.877Z,80.03
2022-12-14T06:09:37.791Z,80.08
2022-12-14T06:14:39.473Z,80.07
2022-12-14T06:19:41.190Z,79.98
2022-12-14T06:24:42.850Z,79.84
2022-12-14T06:29:44.549Z,79.75
2022-12-14T06:34:46.874Z,79.81
2022-12-14T06:39:54.104Z,79.68
2022-12-14T06:44:56.075Z,79.53
2022-12-14T06:49:58.045Z,79.75
2022-12-14T06:54:59.714Z,79.55
2022-12-14T07:00:01.547Z,79.57
2022-12-14T07:05:03.451Z,79.56
2022-12-14T07:10:06.267Z,79.45
2022-12-14T07:15:08.591Z,79.38
2022-12-14T07:20:10.620Z,79.32
2022-12-14T07:25:12.324Z,79.15
2022-12-14T07:30:14.596Z,79.21
2022-12-14T07:35:17.003Z,79.21
2022-12-14T07:40:18.763Z,79.16
2022-12-14T07:45:20.444Z,79.29
2022-12-14T07:50:22.306Z,79.47
2022-12-14T07:55:24.086Z,79.30
2022-12-14T08:00:25.774Z,79.29
2022-12-14T08:05:27.515Z,79.31
2022-12-14T08:10:29.178Z,78.88
2022-12-14T08:15:30.858Z,78.60
2022-12-14T08:20:34.348Z,78.62
2022-12-14T08:25:36.042Z,78.31
2022-12-14T08:30:39.507Z,78.53
2022-12-14T08:35:41.210Z,78.33
2022-12-14T08:40:42.954Z,77.93
2022-12-14T08:45:44.842Z,77.23
2022-12-14T08:50:46.627Z,76.60
2022-12-14T08:55:51.808Z,76.21
2022-12-14T09:01:07.305Z,76.07
2022-12-14T09:06:11.252Z,75.92
2022-12-14T09:11:15.241Z,76.20
2022-12-14T09:16:19.665Z,76.23
2022-12-14T09:21:21.581Z,75.79
2022-12-14T09:26:25.303Z,75.19
2022-12-14T09:31:28.314Z,75.09
2022-12-14T09:36:30.146Z,74.63
2022-12-14T09:41:35.112Z,74.07
2022-12-14T09:46:59.324Z,73.59
2022-12-14T09:52:05.378Z,73.86
2022-12-14T09:57:35.078Z,73.99
2022-12-14T10:02:45.225Z,73.91
2022-12-14T10:07:50.009Z,72.89
2022-12-14T10:13:04.221Z,71.64
2022-12-14T10:19:00.867Z,70.58
2022-12-14T10:24:06.594Z,70.33
2022-12-14T10:29:30.446Z,69.73
2022-12-14T10:34:34.831Z,69.18
2022-12-14T10:40:03.418Z,68.62
2022-12-14T10:45:43.213Z,68.13
2022-12-14T10:51:00.491Z,67.08
2022-12-14T10:56:09.590Z,67.42
2022-12-14T11:01:15.674Z,67.78
2022-12-14T11:06:19.866Z,68.06
2022-12-14T11:11:25.592Z,67.46
2022-12-14T11:16:38.319Z,67.56
2022-12-14T11:21:40.716Z,66.09
2022-12-14T11:26:43.677Z,65.37
2022-12-14T11:31:54.077Z,65.27
2022-12-14T11:36:56.064Z,65.00
2022-12-14T11:41:57.721Z,65.45
2022-12-14T11:47:00.161Z,65.73
2022-12-14T11:52:11.905Z,65.26
2022-12-14T11:57:13.630Z,64.82
2022-12-14T12:02:33.279Z,63.84
2022-12-14T12:07:38.851Z,63.84
2022-12-14T12:12:57.590Z,63.51
2022-12-14T12:18:05.194Z,62.65
2022-12-14T12:23:22.137Z,61.47
2022-12-14T12:28:29.820Z,62.15
2022-12-14T12:33:50.183Z,62.28
2022-12-14T12:39:00.946Z,62.62
2022-12-14T12:44:34.135Z,62.84
2022-12-14T12:49:35.964Z,62.80
2022-12-14T12:54:51.603Z,63.42
2022-12-14T12:59:55.876Z,63.73
2022-12-14T13:05:16.573Z,63.68
2022-12-14T13:10:50.604Z,63.34
2022-12-14T13:16:31.838Z,63.36
2022-12-14T13:21:49.944Z,63.97
2022-12-14T13:27:15.329Z,64.37
2022-12-14T13:32:37.923Z,64.37
2022-12-14T13:37:58.009Z,64.56
2022-12-14T13:43:05.996Z,65.02
2022-12-14T13:48:17.744Z,65.48
2022-12-14T13:53:28.470Z,65.61
2022-12-14T13:58:37.486Z,66.18
2022-12-14T14:03:39.277Z,66.55
2022-12-14T14:08:43.623Z,66.53
2022-12-14T14:14:04.714Z,66.56
2022-12-14T14:19:09.255Z,66.74
2022-12-14T14:24:29.962Z,67.07
2022-12-14T14:29:33.243Z,67.80
2022-12-14T14:34:44.747Z,68.04
2022-12-14T14:39:59.698Z,67.89
2022-12-14T14:45:20.612Z,68.06
2022-12-14T14:50:29.798Z,68.59
2022-12-14T15:01:12.125Z,69.47
2022-12-14T15:06:17.378Z,69.73
2022-12-14T15:11:21.626Z,70.05
2022-12-14T15:16:33.448Z,70.33
2022-12-14T15:21:38.281Z,70.98
2022-12-14T15:26:40.456Z,71.26
2022-12-14T15:31:44.484Z,71.52
2022-12-14T15:36:47.818Z,72.08
2022-12-14T15:41:49.748Z,72.57
2022-12-14T15:46:56.275Z,73.05
2022-12-14T15:51:59.095Z,73.40
2022-12-14T15:57:00.943Z,73.68
2022-12-14T16:02:24.896Z,74.01
2022-12-14T16:07:49.620Z,74.60
2022-12-14T16:13:02.730Z,74.80
2022-12-14T16:18:05.792Z,75.81
2022-12-14T16:23:16.695Z,75.62
2022-12-14T16:28:25.757Z,76.04
2022-12-14T16:33:29.625Z,76.52
2022-12-14T16:38:35.999Z,77.22
2022-12-14T16:43:41.014Z,77.49
2022-12-14T16:48:50.096Z,77.55
2022-12-14T16:53:56.206Z,78.09
2022-12-14T16:59:04.950Z,78.73
2022-12-14T17:04:08.547Z,79.22
2022-12-14T17:09:20.097Z,79.52
2022-12-14T17:14:22.432Z,79.65
2022-12-14T17:19:33.054Z,79.50
2022-12-14T17:24:38.220Z,79.40
2022-12-14T17:29:40.245Z,79.42
2022-12-14T17:34:46.569Z,79.46
2022-12-14T17:39:52.483Z,79.54
2022-12-14T17:44:56.783Z,80.12
2022-12-14T17:49:58.907Z,80.68
2022-12-14T17:55:01.714Z,80.75
2022-12-14T18:00:22.785Z,80.65
2022-12-14T18:05:27.519Z,80.59
2022-12-14T18:10:29.837Z,80.46
2022-12-14T18:15:38.048Z,80.63
2022-12-14T18:20:42.182Z,80.97
2022-12-14T18:25:50.181Z,81.19
2022-12-14T18:30:58.952Z,81.56
2022-12-14T18:36:01.275Z,81.90
2022-12-14T18:41:03.475Z,82.16
2022-12-14T18:46:05.612Z,82.25
2022-12-14T18:51:13.924Z,82.00
2022-12-14T18:56:16.366Z,82.14
2022-12-14T19:01:21.822Z,82.35
2022-12-14T19:06:44.144Z,82.30
2022-12-14T19:11:46.773Z,82.51
2022-12-14T19:16:49.062Z,82.76
2022-12-14T19:21:56.977Z,82.88
2022-12-14T19:27:00.297Z,82.98
2022-12-14T19:32:05.660Z,83.15
2022-12-14T19:37:08.349Z,83.10
2022-12-14T19:42:10.436Z,83.02
2022-12-14T19:47:13.813Z,83.23
2022-12-14T19:52:15.928Z,83.21
2022-12-14T19:57:19.151Z,83.08
2022-12-14T20:02:21.719Z,82.98
2022-12-14T20:07:24.471Z,82.92
2022-12-14T20:12:26.603Z,82.82
2022-12-14T20:17:28.598Z,82.67
2022-12-14T20:22:32.656Z,82.74
2022-12-14T20:27:40.334Z,82.74
2022-12-14T20:32:42.824Z,82.84
2022-12-14T20:37:45.874Z,82.90
2022-12-14T20:42:47.728Z,82.90
2022-12-14T20:47:53.265Z,82.89
2022-12-14T20:52:55.047Z,82.82
2022-12-14T20:57:59.174Z,82.74
2022-12-14T21:03:01.076Z,82.63
2022-12-14T21:08:03.035Z,82.58
2022-12-14T21:13:07.862Z,82.40
2022-12-14T21:18:09.876Z,82.23
2022-12-14T21:23:11.588Z,82.03
2022-12-14T21:28:13.337Z,81.90
2022-12-14T21:33:15.053Z,81.79
2022-12-14T21:38:16.744Z,81.86
2022-12-14T21:43:18.531Z,81.87
2022-12-14T21:48:20.285Z,81.83
2022-12-14T21:53:21.997Z,81.75
2022-12-14T21:58:24.684Z,81.70
2022-12-14T22:03:26.459Z,81.58
2022-12-14T22:08:30.412Z,81.27
2022-12-14T22:13:37.931Z,81.20
2022-12-14T22:18:39.677Z,81.38
2022-12-14T22:23:43.798Z,81.47
2022-12-14T22:28:49.987Z,81.36
2022-12-14T22:33:52.061Z,81.20
2022-12-14T22:38:57.448Z,81.20
2022-12-14T22:43:59.178Z,81.19
2022-12-14T22:49:01.117Z,81.15
2022-12-14T22:54:03.498Z,81.01
2022-12-14T22:59:11.191Z,80.78
2022-12-14T23:04:13.718Z,80.86
2022-12-14T23:09:34.158Z,80.88
2022-12-14T23:14:54.737Z,80.36
2022-12-14T23:20:15.205Z,80.56
2022-12-14T23:25:35.993Z,80.89
2022-12-14T23:30:56.556Z,80.90
2022-12-14T23:36:19.911Z,80.70
2022-12-14T23:41:40.498Z,80.53
2022-12-14T23:47:00.912Z,80.37
2022-12-14T23:52:31.273Z,80.24
2022-12-14T23:57:51.545Z,80.22
